createdAt,value
2023-05-04T00:02:29.469Z,52.72
2023-05-04T00:05:00.087Z,52.01
2023-05-04T00:07:30.494Z,52.71
2023-05-04T00:10:04.908Z,52.67
2023-05-04T00:12:35.788Z,53.04
2023-05-04T00:15:06.996Z,52.67
2023-05-04T00:17:38.121Z,52.70
2023-05-04T00:20:09.160Z,53.36
2023-05-04T00:22:40.096Z,52.73
2023-05-04T00:25:10.903Z,53.00
2023-05-04T00:27:42.453Z,53.03
2023-05-04T00:30:13.197Z,53.09
2023-05-04T00:32:43.959Z,53.36
2023-05-04T00:35:14.657Z,52.64
2023-05-04T00:37:45.285Z,52.78
2023-05-04T00:40:15.799Z,52.82
2023-05-04T00:42:47.094Z,53.11
2023-05-04T00:45:17.636Z,53.64
2023-05-04T00:47:48.606Z,52.60
2023-05-04T00:50:18.997Z,53.36
2023-05-04T00:52:52.731Z,53.61
2023-05-04T00:55:24.964Z,53.09
2023-05-04T00:57:55.805Z,53.40
2023-05-04T01:00:26.200Z,53.18
2023-05-04T01:02:56.605Z,53.71
2023-05-04T01:05:33.295Z,53.99
2023-05-04T01:08:12.988Z,54.20
2023-05-04T01:11:01.552Z,53.75
2023-05-04T01:13:36.824Z,53.65
2023-05-04T01:16:08.470Z,53.22
2023-05-04T01:18:38.945Z,53.93
2023-05-04T01:21:10.619Z,53.59
2023-05-04T01:23:41.192Z,52.97
2023-05-04T01:26:26.471Z,53.64
2023-05-04T01:29:24.308Z,53.55
2023-05-04T01:31:55.818Z,53.72
2023-05-04T01:34:26.233Z,52.78
2023-05-04T01:36:57.571Z,53.30
2023-05-04T01:39:27.833Z,53.16
2023-05-04T01:41:59.177Z,52.48
2023-05-04T01:44:29.675Z,52.81
2023-05-04T01:47:00.203Z,53.68
2023-05-04T01:49:30.779Z,53.03
2023-05-04T01:52:01.767Z,53.01
2023-05-04T01:54:32.413Z,52.80
2023-05-04T01:57:03.769Z,52.56
2023-05-04T01:59:34.312Z,51.64
2023-05-04T02:02:05.394Z,51.57
2023-05-04T02:04:35.969Z,51.56
2023-05-04T02:07:07.140Z,50.89
2023-05-04T02:09:38.285Z,50.96
2023-05-04T02:12:08.748Z,50.99
2023-05-04T02:14:39.713Z,51.26
2023-05-04T02:17:10.736Z,51.06
2023-05-04T02:19:41.180Z,51.29
2023-05-04T02:22:11.490Z,50.77
2023-05-04T02:24:45.915Z,50.38
2023-05-04T02:27:16.350Z,50.74
2023-05-04T02:29:47.954Z,50.68
2023-05-04T02:32:19.444Z,50.46
2023-05-04T02:34:49.782Z,51.25
2023-05-04T02:37:21.079Z,51.03
2023-05-04T02:39:51.676Z,50.52
2023-05-04T02:42:22.773Z,50.51
2023-05-04T02:44:52.971Z,50.40
2023-05-04T02:47:23.396Z,50.97
2023-05-04T02:49:53.936Z,50.48
2023-05-04T02:52:25.254Z,51.07
2023-05-04T02:54:55.703Z,50.78
2023-05-04T02:57:26.140Z,50.50
2023-05-04T02:59:56.895Z,50.87
2023-05-04T03:02:27.332Z,50.37
2023-05-04T03:04:57.798Z,50.80
2023-05-04T03:07:29.922Z,50.46
2023-05-04T03:10:00.477Z,50.32
2023-05-04T03:12:30.912Z,50.46
2023-05-04T03:15:01.612Z,50.90
2023-05-04T03:17:32.269Z,50.53
2023-05-04T03:20:03.595Z,50.66
2023-05-04T03:22:35.936Z,50.33
2023-05-04T03:25:06.919Z,50.34
2023-05-04T03:27:38.481Z,50.82
2023-05-04T03:30:09.832Z,50.63
2023-05-04T03:32:42.434Z,50.33
2023-05-04T03:35:19.031Z,50.02
2023-05-04T03:37:54.228Z,50.08
2023-05-04T03:40:25.757Z,49.87
2023-05-04T03:42:57.323Z,50.50
2023-05-04T03:45:30.139Z,50.43
2023-05-04T03:48:01.231Z,50.02
2023-05-04T03:50:33.292Z,50.05
2023-05-04T03:53:03.704Z,50.00
2023-05-04T03:55:34.955Z,49.76
2023-05-04T03:58:05.356Z,50.04
2023-05-04T04:00:35.882Z,49.76
2023-05-04T04:03:13.938Z,50.26
2023-05-04T04:05:44.520Z,50.19
2023-05-04T04:08:15.790Z,49.56
2023-05-04T04:10:46.142Z,49.66
2023-05-04T04:13:17.245Z,50.05
2023-05-04T04:15:48.088Z,50.33
2023-05-04T04:18:18.594Z,50.23
2023-05-04T04:20:49.062Z,49.80
2023-05-04T04:23:23.286Z,49.81
2023-05-04T04:25:55.334Z,49.60
2023-05-04T04:28:26.236Z,50.36
2023-05-04T04:30:57.551Z,50.20
2023-05-04T04:33:28.295Z,49.86
2023-05-04T04:35:58.783Z,49.96
2023-05-04T04:38:29.243Z,49.75
2023-05-04T04:40:59.619Z,49.78
2023-05-04T04:43:30.237Z,50.16
2023-05-04T04:46:01.374Z,50.11
2023-05-04T04:48:31.775Z,49.80
2023-05-04T04:51:03.093Z,50.05
2023-05-04T04:53:33.714Z,49.92
2023-05-04T04:56:03.932Z,50.29
2023-05-04T04:58:35.111Z,49.71
2023-05-04T05:01:09.669Z,49.74
2023-05-04T05:03:40.072Z,49.66
2023-05-04T05:06:10.542Z,49.57
2023-05-04T05:08:41.592Z,50.14
2023-05-04T05:11:13.044Z,50.18
2023-05-04T05:13:43.402Z,50.38
2023-05-04T05:16:13.814Z,50.24
2023-05-04T05:18:44.567Z,49.71
2023-05-04T05:21:16.065Z,49.97
2023-05-04T05:23:46.469Z,50.21
2023-05-04T05:26:17.714Z,49.66
2023-05-04T05:28:48.210Z,49.83
2023-05-04T05:31:18.486Z,49.88
2023-05-04T05:33:49.050Z,50.51
2023-05-04T05:36:20.313Z,50.04
2023-05-04T05:38:50.872Z,49.53
2023-05-04T05:41:21.364Z,49.97
2023-05-04T05:43:51.945Z,49.69
2023-05-04T05:46:24.266Z,49.69
2023-05-04T05:48:54.678Z,50.19
2023-05-04T05:51:25.281Z,50.07
2023-05-04T05:53:55.725Z,50.21
2023-05-04T05:56:26.405Z,49.59
2023-05-04T05:58:57.316Z,49.67
2023-05-04T06:01:28.157Z,49.50
2023-05-04T06:03:59.883Z,50.04
2023-05-04T06:06:31.311Z,49.51
2023-05-04T06:09:01.944Z,49.85
2023-05-04T06:11:33.469Z,49.49
2023-05-04T06:14:04.139Z,49.44
2023-05-04T06:16:35.462Z,49.56
2023-05-04T06:19:06.274Z,50.10
2023-05-04T06:21:36.727Z,49.71
2023-05-04T06:24:07.573Z,49.28
2023-05-04T06:26:38.009Z,49.56
2023-05-04T06:29:08.465Z,49.81
2023-05-04T06:31:39.318Z,49.45
2023-05-04T06:34:10.531Z,49.29
2023-05-04T06:36:40.978Z,49.82
2023-05-04T06:39:11.734Z,49.60
2023-05-04T06:41:42.364Z,50.04
2023-05-04T06:44:13.302Z,49.32
2023-05-04T06:46:43.720Z,50.24
2023-05-04T06:49:14.062Z,49.57
2023-05-04T06:51:44.464Z,49.67
2023-05-04T06:54:14.985Z,50.01
2023-05-04T06:56:45.413Z,49.42
2023-05-04T06:59:18.325Z,49.69
2023-05-04T07:01:52.143Z,50.25
2023-05-04T07:04:24.767Z,49.96
2023-05-04T07:06:55.226Z,49.71
2023-05-04T07:09:25.654Z,50.05
2023-05-04T07:11:56.047Z,49.65
2023-05-04T07:14:26.479Z,49.39
2023-05-04T07:16:56.938Z,49.97
2023-05-04T07:19:27.359Z,49.54
2023-05-04T07:21:58.830Z,49.91
2023-05-04T07:24:32.322Z,50.07
2023-05-04T07:27:02.711Z,49.20
2023-05-04T07:29:33.711Z,49.76
2023-05-04T07:32:04.483Z,49.99
2023-05-04T07:34:44.935Z,49.36
2023-05-04T07:37:19.774Z,49.37
2023-05-04T07:39:50.139Z,49.44
2023-05-04T07:42:21.368Z,49.50
2023-05-04T07:44:51.802Z,49.81
2023-05-04T07:47:23.080Z,49.60
2023-05-04T07:49:55.045Z,49.98
2023-05-04T07:52:25.704Z,49.80
2023-05-04T07:54:56.454Z,49.36
2023-05-04T07:57:26.961Z,49.79
2023-05-04T07:59:58.103Z,49.05
2023-05-04T08:02:28.547Z,49.49
2023-05-04T08:04:58.959Z,49.74
2023-05-04T08:07:29.379Z,50.04
2023-05-04T08:10:00.056Z,49.83
2023-05-04T08:12:30.467Z,49.85
2023-05-04T08:15:01.049Z,49.64
2023-05-04T08:17:32.435Z,49.71
2023-05-04T08:20:03.451Z,49.75
2023-05-04T08:22:34.136Z,49.27
2023-05-04T08:25:05.044Z,49.68
2023-05-04T08:27:35.510Z,49.83
2023-05-04T08:30:06.753Z,50.03
2023-05-04T08:32:37.361Z,49.58
2023-05-04T08:35:08.096Z,49.05
2023-05-04T08:37:38.874Z,49.85
2023-05-04T08:40:10.601Z,50.09
2023-05-04T08:42:41.944Z,49.50
2023-05-04T08:45:12.822Z,49.43
2023-05-04T08:47:44.970Z,49.56
2023-05-04T08:50:15.709Z,49.73
2023-05-04T08:52:50.702Z,49.90
2023-05-04T08:55:21.492Z,49.34
2023-05-04T08:57:52.658Z,49.77
2023-05-04T09:00:24.592Z,49.45
2023-05-04T09:02:56.619Z,49.29
2023-05-04T09:05:28.200Z,50.05
2023-05-04T09:07:59.506Z,49.92
2023-05-04T09:10:30.018Z,49.85
2023-05-04T09:13:00.430Z,49.72
2023-05-04T09:15:33.033Z,49.93
2023-05-04T09:18:08.658Z,49.87
2023-05-04T09:20:49.735Z,49.25
2023-05-04T09:23:20.720Z,49.75
2023-05-04T09:25:54.917Z,50.16
2023-05-04T09:28:45.367Z,49.70
2023-05-04T09:31:16.652Z,49.83
2023-05-04T09:33:47.078Z,49.13
2023-05-04T09:36:22.519Z,49.77
2023-05-04T09:38:52.962Z,49.55
2023-05-04T09:41:34.998Z,49.07
2023-05-04T09:44:06.219Z,49.26
2023-05-04T09:46:37.537Z,49.16
2023-05-04T09:49:07.980Z,49.48
2023-05-04T09:51:39.140Z,50.00
2023-05-04T09:54:09.734Z,49.66
2023-05-04T09:56:54.492Z,49.40
2023-05-04T09:59:28.947Z,49.15
2023-05-04T10:02:04.834Z,49.74
2023-05-04T10:04:45.648Z,49.71
2023-05-04T10:07:16.148Z,49.92
2023-05-04T10:09:48.857Z,49.15
2023-05-04T10:12:20.009Z,49.24
2023-05-04T10:14:50.481Z,49.57
2023-05-04T10:17:48.034Z,49.73
2023-05-04T10:20:56.390Z,49.04
2023-05-04T10:23:39.049Z,49.64
2023-05-04T10:26:44.181Z,49.64
2023-05-04T10:29:26.560Z,48.97
2023-05-04T10:31:58.293Z,49.15
2023-05-04T10:34:33.498Z,49.37
2023-05-04T10:37:05.735Z,49.42
2023-05-04T10:39:37.506Z,49.28
2023-05-04T10:42:09.976Z,48.81
2023-05-04T10:45:00.451Z,49.46
2023-05-04T10:47:33.897Z,49.59
2023-05-04T10:50:17.471Z,49.15
2023-05-04T10:52:50.012Z,49.53
2023-05-04T10:55:21.431Z,49.34
2023-05-04T10:57:58.464Z,49.02
2023-05-04T11:00:39.917Z,49.36
2023-05-04T11:03:10.997Z,49.07
2023-05-04T11:05:47.944Z,49.00
2023-05-04T11:08:23.304Z,49.70
2023-05-04T11:11:04.513Z,48.87
2023-05-04T11:13:48.926Z,48.80
2023-05-04T11:16:27.334Z,49.47
2023-05-04T11:19:08.562Z,49.17
2023-05-04T11:21:39.429Z,49.49
2023-05-04T11:24:10.504Z,49.34
2023-05-04T11:26:51.177Z,49.08
2023-05-04T11:29:21.878Z,48.81
2023-05-04T11:31:58.276Z,49.28
2023-05-04T11:34:29.299Z,48.73
2023-05-04T11:37:00.032Z,48.88
2023-05-04T11:39:33.751Z,49.08
2023-05-04T11:42:10.396Z,49.18
2023-05-04T11:44:42.283Z,48.72
2023-05-04T11:47:13.590Z,48.61
2023-05-04T11:49:45.396Z,49.61
2023-05-04T11:52:16.111Z,49.06
2023-05-04T11:54:58.708Z,48.72
2023-05-04T11:57:29.109Z,48.84
2023-05-04T11:59:59.472Z,49.33
2023-05-04T12:02:30.014Z,48.67
2023-05-04T12:05:00.501Z,48.91
2023-05-04T12:07:31.111Z,49.35
2023-05-04T12:10:01.558Z,49.11
2023-05-04T12:12:37.990Z,49.50
2023-05-04T12:15:09.203Z,49.21
2023-05-04T12:17:44.076Z,49.15
2023-05-04T12:20:29.753Z,48.99
2023-05-04T12:23:00.811Z,48.88
2023-05-04T12:25:31.404Z,48.52
2023-05-04T12:28:02.076Z,48.76
2023-05-04T12:30:33.417Z,49.55
2023-05-04T12:33:03.972Z,48.60
2023-05-04T12:35:34.454Z,48.47
2023-05-04T12:38:04.835Z,48.85
2023-05-04T12:40:35.464Z,48.50
2023-05-04T12:43:05.688Z,48.74
2023-05-04T12:45:36.183Z,48.91
2023-05-04T12:48:06.752Z,48.98
2023-05-04T12:50:37.308Z,48.61
2023-05-04T12:53:08.623Z,49.11
2023-05-04T12:55:39.451Z,49.21
2023-05-04T12:58:10.731Z,49.31
2023-05-04T13:00:42.576Z,49.37
2023-05-04T13:03:14.749Z,49.05
2023-05-04T13:05:45.281Z,49.18
2023-05-04T13:08:15.657Z,48.85
2023-05-04T13:10:47.771Z,48.84
2023-05-04T13:13:19.534Z,48.49
2023-05-04T13:15:52.636Z,48.55
2023-05-04T13:18:28.400Z,48.70
2023-05-04T13:20:59.286Z,49.04
2023-05-04T13:23:30.567Z,48.34
2023-05-04T13:26:00.828Z,48.46
2023-05-04T13:28:31.584Z,48.98
2023-05-04T13:31:02.048Z,48.78
2023-05-04T13:33:36.797Z,49.18
2023-05-04T13:36:10.628Z,48.46
2023-05-04T13:38:41.076Z,48.53
2023-05-04T13:41:11.564Z,48.65
2023-05-04T13:43:42.056Z,49.05
2023-05-04T13:46:12.714Z,48.98
2023-05-04T13:48:43.121Z,48.19
2023-05-04T13:51:13.687Z,48.28
2023-05-04T13:53:45.214Z,48.50
2023-05-04T13:56:15.712Z,48.14
2023-05-04T13:58:46.394Z,48.53
2023-05-04T14:01:17.539Z,48.51
2023-05-04T14:03:48.162Z,49.04
2023-05-04T14:06:18.966Z,48.92
2023-05-04T14:08:49.323Z,48.50
2023-05-04T14:11:19.741Z,49.17
2023-05-04T14:13:50.597Z,48.32
2023-05-04T14:16:21.321Z,48.37
2023-05-04T14:18:52.521Z,49.03
2023-05-04T14:21:22.899Z,48.82
2023-05-04T14:23:53.195Z,48.87
2023-05-04T14:26:23.610Z,48.49
2023-05-04T14:28:53.828Z,48.20
2023-05-04T14:31:24.331Z,48.85
2023-05-04T14:33:56.639Z,49.11
2023-05-04T14:36:27.326Z,48.35
2023-05-04T14:38:59.782Z,48.46
2023-05-04T14:41:34.972Z,48.89
2023-05-04T14:44:07.112Z,48.23
2023-05-04T14:46:37.767Z,48.97
2023-05-04T14:49:09.183Z,48.27
2023-05-04T14:51:40.725Z,48.31
2023-05-04T14:54:11.382Z,48.07
2023-05-04T14:56:42.346Z,48.67
2023-05-04T14:59:13.131Z,48.07
2023-05-04T15:01:43.514Z,48.57
2023-05-04T15:04:15.141Z,48.85
2023-05-04T15:06:45.808Z,48.33
2023-05-04T15:09:16.210Z,48.26
2023-05-04T15:11:46.597Z,48.30
2023-05-04T15:14:17.885Z,48.43
2023-05-04T15:16:48.133Z,47.92
2023-05-04T15:19:18.334Z,48.35
2023-05-04T15:21:48.724Z,48.29
2023-05-04T15:24:19.150Z,48.65
2023-05-04T15:26:49.585Z,48.67
2023-05-04T15:29:19.964Z,48.04
2023-05-04T15:31:50.657Z,48.11
2023-05-04T15:34:21.210Z,48.91
2023-05-04T15:36:51.607Z,48.93
2023-05-04T15:39:21.873Z,48.06
2023-05-04T15:41:52.251Z,48.78
2023-05-04T15:44:22.709Z,48.12
2023-05-04T15:46:53.201Z,48.78
2023-05-04T15:49:23.701Z,48.12
2023-05-04T15:51:55.393Z,48.98
2023-05-04T15:54:25.909Z,48.06
2023-05-04T15:56:56.707Z,48.90
2023-05-04T15:59:27.004Z,48.91
2023-05-04T16:01:57.388Z,49.04
2023-05-04T16:04:27.810Z,48.61
2023-05-04T16:06:58.546Z,48.12
2023-05-04T16:09:29.628Z,48.81
2023-05-04T16:12:00.338Z,48.49
2023-05-04T16:14:31.584Z,48.37
2023-05-04T16:17:05.461Z,48.84
2023-05-04T16:19:35.893Z,48.77
2023-05-04T16:22:06.399Z,48.90
2023-05-04T16:24:37.607Z,49.10
2023-05-04T16:27:09.349Z,48.61
2023-05-04T16:29:39.729Z,48.75
2023-05-04T16:32:10.148Z,48.77
2023-05-04T16:34:40.636Z,48.26
2023-05-04T16:37:11.360Z,48.99
2023-05-04T16:39:41.953Z,49.16
2023-05-04T16:42:12.424Z,49.28
2023-05-04T16:44:42.796Z,49.13
2023-05-04T16:47:13.156Z,48.40
2023-05-04T16:49:43.559Z,48.65
2023-05-04T16:52:14.707Z,48.92
2023-05-04T16:54:45.098Z,49.01
2023-05-04T16:57:15.465Z,48.73
2023-05-04T16:59:45.761Z,48.76
2023-05-04T17:02:16.259Z,49.12
2023-05-04T17:04:46.740Z,48.54
2023-05-04T17:07:17.088Z,48.43
2023-05-04T17:09:47.495Z,49.10
2023-05-04T17:12:18.059Z,49.23
2023-05-04T17:14:48.979Z,49.53
2023-05-04T17:17:19.484Z,48.76
2023-05-04T17:19:49.904Z,48.89
2023-05-04T17:22:21.195Z,48.79
2023-05-04T17:24:51.686Z,49.08
2023-05-04T17:27:22.112Z,49.34
2023-05-04T17:29:53.160Z,49.02
2023-05-04T17:32:23.637Z,49.82
2023-05-04T17:34:54.313Z,49.77
2023-05-04T17:37:24.916Z,49.55
2023-05-04T17:39:55.271Z,50.03
2023-05-04T17:42:25.698Z,49.51
2023-05-04T17:44:56.730Z,49.81
2023-05-04T17:47:27.188Z,49.33
2023-05-04T17:49:57.608Z,50.11
2023-05-04T17:52:28.022Z,49.54
2023-05-04T17:54:58.692Z,49.69
2023-05-04T17:57:28.904Z,49.72
2023-05-04T17:59:59.272Z,50.26
2023-05-04T18:02:32.236Z,50.42
2023-05-04T18:05:02.623Z,50.31
2023-05-04T18:07:32.987Z,50.52
2023-05-04T18:10:05.027Z,49.84
2023-05-04T18:12:37.618Z,49.88
2023-05-04T18:15:10.506Z,50.29
2023-05-04T18:17:41.089Z,50.58
2023-05-04T18:20:14.196Z,50.63
2023-05-04T18:22:44.731Z,50.41
2023-05-04T18:25:16.834Z,49.96
2023-05-04T18:27:47.251Z,50.06
2023-05-04T18:30:17.875Z,49.93
2023-05-04T18:32:48.232Z,50.43
2023-05-04T18:35:19.022Z,50.77
2023-05-04T18:37:49.828Z,50.70
2023-05-04T18:40:20.247Z,49.95
2023-05-04T18:42:50.695Z,50.14
2023-05-04T18:45:21.799Z,50.14
2023-05-04T18:47:52.321Z,50.23
2023-05-04T18:50:22.946Z,50.76
2023-05-04T18:52:55.568Z,49.93
2023-05-04T18:55:26.033Z,50.27
2023-05-04T18:57:56.440Z,50.67
2023-05-04T19:00:26.994Z,50.65
2023-05-04T19:02:59.604Z,50.64
2023-05-04T19:05:30.066Z,50.29
2023-05-04T19:08:00.466Z,50.58
2023-05-04T19:10:30.775Z,49.67
2023-05-04T19:13:02.759Z,50.49
2023-05-04T19:15:36.202Z,49.97
2023-05-04T19:18:06.855Z,50.21
2023-05-04T19:20:40.563Z,49.88
2023-05-04T19:23:14.261Z,49.87
2023-05-04T19:25:44.809Z,50.57
2023-05-04T19:28:15.217Z,50.39
2023-05-04T19:30:45.599Z,50.75
2023-05-04T19:33:16.035Z,50.70
2023-05-04T19:35:46.738Z,50.60
2023-05-04T19:38:17.902Z,51.06
2023-05-04T19:40:48.260Z,50.85
2023-05-04T19:43:18.897Z,50.59
2023-05-04T19:45:49.573Z,50.81
2023-05-04T19:48:22.956Z,51.25
2023-05-04T19:50:53.791Z,51.65
2023-05-04T19:53:24.162Z,51.53
2023-05-04T19:55:54.558Z,51.14
2023-05-04T19:58:27.850Z,51.23
2023-05-04T20:00:58.366Z,51.64
2023-05-04T20:03:28.867Z,51.52
2023-05-04T20:05:59.394Z,51.40
2023-05-04T20:08:30.515Z,51.99
2023-05-04T20:11:00.852Z,52.11
2023-05-04T20:13:31.913Z,52.15
2023-05-04T20:16:03.332Z,51.64
2023-05-04T20:18:34.012Z,51.86
2023-05-04T20:21:05.119Z,52.09
2023-05-04T20:23:35.595Z,52.32
2023-05-04T20:26:06.336Z,52.29
2023-05-04T20:28:36.893Z,52.50
2023-05-04T20:31:09.122Z,51.84
2023-05-04T20:33:39.654Z,52.51
2023-05-04T20:36:13.094Z,52.39
2023-05-04T20:38:43.420Z,52.55
2023-05-04T20:41:13.955Z,51.95
2023-05-04T20:43:44.770Z,52.68
2023-05-04T20:46:15.041Z,52.68
2023-05-04T20:48:45.576Z,52.41
2023-05-04T20:51:16.048Z,52.27
2023-05-04T20:53:46.826Z,52.08
2023-05-04T20:56:17.062Z,52.62
2023-05-04T20:58:47.408Z,52.68
2023-05-04T21:01:18.002Z,52.57
2023-05-04T21:03:48.443Z,53.46
2023-05-04T21:06:19.182Z,53.21
2023-05-04T21:08:49.518Z,53.35
2023-05-04T21:11:19.845Z,53.24
2023-05-04T21:13:50.858Z,53.28
2023-05-04T21:16:21.294Z,53.33
2023-05-04T21:18:51.688Z,53.39
2023-05-04T21:21:22.893Z,53.45
2023-05-04T21:23:53.320Z,54.24
2023-05-04T21:26:23.566Z,54.34
2023-05-04T21:28:54.831Z,53.92
2023-05-04T21:31:25.007Z,54.59
2023-05-04T21:33:55.389Z,53.99
2023-05-04T21:36:25.812Z,54.26
2023-05-04T21:38:56.887Z,54.20
2023-05-04T21:41:27.481Z,54.05
2023-05-04T21:43:57.886Z,54.18
2023-05-04T21:46:28.277Z,54.16
2023-05-04T21:48:58.746Z,54.38
2023-05-04T21:51:29.912Z,54.72
2023-05-04T21:54:00.338Z,55.30
2023-05-04T21:56:30.813Z,55.44
2023-05-04T21:59:01.910Z,55.50
2023-05-04T22:01:32.312Z,54.85
2023-05-04T22:04:02.967Z,55.55
2023-05-04T22:06:33.877Z,55.52
2023-05-04T22:09:04.288Z,54.81
2023-05-04T22:11:34.660Z,55.37
2023-05-04T22:14:05.088Z,54.98
2023-05-04T22:16:35.937Z,55.44
2023-05-04T22:19:07.140Z,55.33
2023-05-04T22:21:39.314Z,55.59
2023-05-04T22:24:10.599Z,55.49
2023-05-04T22:26:42.381Z,55.13
2023-05-04T22:29:12.881Z,56.03
2023-05-04T22:31:43.264Z,55.85
2023-05-04T22:34:13.852Z,55.75
2023-05-04T22:36:44.237Z,56.25
2023-05-04T22:39:14.996Z,55.81
2023-05-04T22:41:45.386Z,55.71
2023-05-04T22:44:15.751Z,55.77
2023-05-04T22:46:46.884Z,55.96
2023-05-04T22:49:19.706Z,56.66
2023-05-04T22:51:50.073Z,55.72
2023-05-04T22:54:20.487Z,55.96
2023-05-04T22:56:50.971Z,56.66
2023-05-04T22:59:21.321Z,56.66
2023-05-04T23:01:51.811Z,56.88
2023-05-04T23:04:23.008Z,56.30
2023-05-04T23:06:54.468Z,56.90
2023-05-04T23:09:25.035Z,56.50
2023-05-04T23:11:55.685Z,56.33
2023-05-04T23:14:26.948Z,56.42
2023-05-04T23:16:57.308Z,56.33
2023-05-04T23:19:27.673Z,56.86
2023-05-04T23:21:59.513Z,57.18
2023-05-04T23:24:29.887Z,57.25
2023-05-04T23:27:00.687Z,56.51
2023-05-04T23:29:31.045Z,56.81
2023-05-04T23:32:01.974Z,57.36
2023-05-04T23:34:32.593Z,57.39
2023-05-04T23:37:03.942Z,56.97
2023-05-04T23:39:34.309Z,57.63
2023-05-04T23:42:04.694Z,57.17
2023-05-04T23:44:35.320Z,57.86
2023-05-04T23:47:05.951Z,57.15
2023-05-04T23:49:36.560Z,57.35
2023-05-04T23:52:07.946Z,57.13
2023-05-04T23:54:38.429Z,56.90
2023-05-04T23:57:11.904Z,57.30
2023-05-04T23:59:43.502Z,57.26
